Time;durP1;ratioP1;P1;durP2;ratioP2;P2;SDS_P1;SDS_P2;PMS_P1;PMS_P2;Temp;Humidity;BMP_temperature;BMP_pressure;BME280_temperature;BME280_humidity;BME280_pressure;Samples;Min_cycle;Max_cycle;Signal;HPM_P1;HPM_P2
2022/05/16 00:01:47;;;;;;;48.42;19.55;;;;;;;29.12;62.01;97156.56;4910819;29;20120;-65
2022/05/16 00:04:24;;;;;;;54.10;17.10;;;;;;;29.11;61.84;97149.63;4911494;29;20071;-65
2022/05/16 00:07:19;;;;;;;53.53;18.55;;;;;;;29.09;59.71;97160.44;4911146;29;20047;-64
2022/05/16 00:09:55;;;;;;;54.85;17.48;;;;;;;29.11;56.06;97169.00;4892553;29;20044;-64
2022/05/16 00:12:44;;;;;;;60.33;19.83;;;;;;;29.12;55.39;97167.19;4891784;29;20108;-64
2022/05/16 00:15:28;;;;;;;49.05;18.95;;;;;;;29.13;60.90;97168.81;4893241;29;20044;-64
2022/05/16 00:18:17;;;;;;;58.60;18.23;;;;;;;29.14;62.98;97183.69;4913178;29;20138;-64
2022/05/16 00:21:07;;;;;;;60.90;17.67;;;;;;;29.12;59.49;97183.09;4929210;29;20117;-65
2022/05/16 00:23:49;;;;;;;54.38;17.63;;;;;;;29.13;57.82;97190.84;4928777;29;20047;-65
2022/05/16 00:26:39;;;;;;;47.35;17.83;;;;;;;29.18;60.70;97176.97;4911930;29;20048;-65
2022/05/16 00:29:35;;;;;;;57.70;17.00;;;;;;;29.19;59.68;97184.75;4922725;28;20051;-65
2022/05/16 00:32:24;;;;;;;56.38;16.83;;;;;;;29.19;58.01;97190.06;4892461;29;20473;-65
2022/05/16 00:35:15;;;;;;;45.92;15.07;;;;;;;29.23;58.84;97191.28;4890394;29;20159;-64
2022/05/16 00:37:58;;;;;;;44.40;14.27;;;;;;;29.24;54.83;97202.69;4919462;29;20054;-64
2022/05/16 00:40:48;;;;;;;47.83;15.45;;;;;;;29.27;58.15;97202.31;4928661;29;20047;-65
2022/05/16 00:43:57;;;;;;;52.58;16.52;;;;;;;29.43;53.93;97206.47;4916848;29;20112;-65
2022/05/16 00:46:33;;;;;;;54.28;15.65;;;;;;;29.39;57.12;97211.34;4908302;29;20063;-65
2022/05/16 00:49:33;;;;;;;46.95;16.77;;;;;;;29.34;55.06;97208.47;4893617;29;20044;-65
2022/05/16 00:52:34;;;;;;;52.00;16.55;;;;;;;29.38;61.32;97214.19;4888347;29;20048;-64
2022/05/16 00:55:29;;;;;;;75.03;18.23;;;;;;;29.35;52.45;97215.44;4888767;29;20052;-65
2022/05/16 00:58:20;;;;;;;63.10;17.27;;;;;;;29.41;52.21;97219.13;4888711;29;20055;-64
2022/05/16 01:07:41;;;;;;;55.15;14.57;;;;;;;29.56;50.21;97246.31;4927474;28;20040;-65
2022/05/16 01:10:29;;;;;;;54.28;13.40;;;;;;;29.69;50.47;97264.94;4927455;29;20055;-64
2022/05/16 01:13:25;;;;;;;49.40;15.68;;;;;;;29.67;52.03;97251.03;4908294;29;20472;-65
2022/05/16 01:16:02;;;;;;;55.97;15.73;;;;;;;29.79;51.84;97253.91;4889169;29;20636;-65
2022/05/16 01:18:58;;;;;;;70.70;17.50;;;;;;;29.82;49.58;97272.09;4906273;29;20543;-64
2022/05/16 01:21:38;;;;;;;52.10;16.73;;;;;;;29.86;52.57;97273.31;4927573;29;20368;-64
2022/05/16 01:24:27;;;;;;;65.65;19.15;;;;;;;29.86;49.30;97268.81;4926756;29;20111;-65
2022/05/16 01:27:10;;;;;;;61.45;20.33;;;;;;;29.97;49.95;97267.44;4927459;29;20052;-64
2022/05/16 01:30:05;;;;;;;72.60;24.02;;;;;;;30.01;47.75;97276.66;4917288;28;20059;-65
2022/05/16 01:33:00;;;;;;;58.15;20.23;;;;;;;30.07;52.11;97277.66;4907600;29;20582;-65
2022/05/16 01:35:36;;;;;;;52.75;20.48;;;;;;;30.09;51.94;97272.97;4898783;29;20055;-65
2022/05/16 01:38:26;;;;;;;73.13;22.85;;;;;;;30.07;48.99;97283.81;4907177;29;20040;-65
2022/05/16 01:41:13;;;;;;;64.22;24.27;;;;;;;30.20;53.74;97277.66;4907768;29;20611;-64
2022/05/16 01:44:08;;;;;;;58.55;23.65;;;;;;;30.24;51.66;97284.22;4908491;29;20123;-64
2022/05/16 01:46:44;;;;;;;67.43;25.73;;;;;;;30.33;51.88;97281.13;4908257;29;20066;-64
2022/05/16 01:49:33;;;;;;;79.80;27.00;;;;;;;30.41;49.49;97275.59;4908349;29;20107;-64
2022/05/16 01:52:22;;;;;;;70.82;26.50;;;;;;;30.56;53.19;97278.09;4909121;29;20497;-65
2022/05/16 01:55:11;;;;;;;84.30;28.17;;;;;;;30.72;48.22;97282.16;4907881;29;20155;-65
2022/05/16 01:58:01;;;;;;;94.95;30.38;;;;;;;30.89;46.69;97282.53;4909265;29;20052;-64
2022/05/16 02:00:51;;;;;;;79.60;30.33;;;;;;;31.08;48.56;97287.81;4908473;29;20064;-65
2022/05/16 02:03:39;;;;;;;80.30;31.42;;;;;;;31.25;45.86;97293.50;4908404;29;20048;-65
2022/05/16 02:06:28;;;;;;;96.30;31.63;;;;;;;31.46;49.76;97295.84;4908853;29;20152;-65
2022/05/16 02:09:18;;;;;;;80.85;30.60;;;;;;;31.50;50.45;97304.25;4909245;29;20539;-65
2022/05/16 02:12:00;;;;;;;75.70;30.73;;;;;;;31.74;53.43;97303.53;4909174;29;20052;-65
2022/05/16 02:14:49;;;;;;;88.03;32.65;;;;;;;31.96;53.09;97292.53;4909596;29;20036;-66
2022/05/16 02:17:34;;;;;;;197.50;38.33;;;;;;;32.15;53.66;97299.59;4875629;29;20138;-65
2022/05/16 02:20:23;;;;;;;164.55;38.20;;;;;;;32.24;51.86;97307.16;4915957;29;20567;-65
2022/05/16 02:26:14;;;;;;;96.50;33.53;;;;;;;32.65;51.26;97316.41;4927405;29;20044;-64
2022/05/16 02:28:56;;;;;;;106.88;36.92;;;;;;;32.90;51.43;97314.56;4928386;28;20047;-65
2022/05/16 02:31:46;;;;;;;88.72;35.70;;;;;;;33.12;50.94;97322.16;4927541;29;20075;-65
2022/05/16 02:34:22;;;;;;;86.75;34.75;;;;;;;33.21;49.73;97326.16;4927658;29;20142;-64
2022/05/16 02:37:13;;;;;;;90.28;34.90;;;;;;;33.19;43.99;97330.91;4927354;29;20067;-64
2022/05/16 02:40:01;;;;;;;89.90;35.55;;;;;;;33.37;47.38;97321.03;4927127;29;20098;-65
2022/05/16 02:42:43;;;;;;;94.90;35.45;;;;;;;33.37;46.04;97315.69;4924288;29;20496;-65
2022/05/16 02:45:34;;;;;;;81.18;34.60;;;;;;;33.73;50.02;97319.41;4893770;29;20060;-64
2022/05/16 02:48:23;;;;;;;77.32;34.80;;;;;;;33.83;49.53;97313.53;4889308;29;20103;-65
2022/05/16 02:51:05;;;;;;;84.35;34.25;;;;;;;33.87;47.84;97317.34;4891595;29;20045;-64
2022/05/16 02:53:54;;;;;;;83.30;33.38;;;;;;;33.86;50.80;97315.72;4890143;29;20116;-65
2022/05/16 02:56:37;;;;;;;83.85;33.70;;;;;;;33.85;49.38;97316.75;4888614;29;20053;-65
2022/05/16 02:59:27;;;;;;;77.43;31.95;;;;;;;33.89;50.69;97312.59;4888937;29;20041;-64
2022/05/16 03:02:16;;;;;;;85.95;32.10;;;;;;;33.98;50.04;97322.75;4888274;29;20152;-65
2022/05/16 03:05:13;;;;;;;93.38;32.70;;;;;;;34.15;51.91;97323.72;4927915;29;20067;-64
2022/05/16 03:07:50;;;;;;;76.22;29.90;;;;;;;34.27;53.41;97323.78;4930595;29;20126;-65
2022/05/16 03:10:38;;;;;;;90.28;32.75;;;;;;;34.28;54.61;97337.97;4931222;29;20527;-64
2022/05/16 03:13:27;;;;;;;88.80;32.85;;;;;;;34.44;47.10;97327.41;4931034;29;20060;-65
2022/05/16 03:16:09;;;;;;;73.38;31.10;;;;;;;34.75;50.86;97330.81;4931250;29;20051;-66
2022/05/16 03:18:58;;;;;;;81.80;30.13;;;;;;;34.83;49.48;97346.53;4914447;29;20115;-65
2022/05/16 03:21:47;;;;;;;68.95;29.88;;;;;;;35.06;48.96;97351.88;4930030;29;20052;-65
2022/05/16 03:24:30;;;;;;;95.68;32.75;;;;;;;35.14;45.53;97353.38;4906805;29;20089;-65
2022/05/16 03:27:19;;;;;;;69.68;30.38;;;;;;;35.27;48.48;97347.84;4892886;29;20052;-65
2022/05/16 03:30:02;;;;;;;74.45;32.45;;;;;;;35.20;44.42;97342.53;4930904;28;20065;-65
2022/05/16 03:32:51;;;;;;;73.82;32.35;;;;;;;35.37;47.60;97341.84;4929010;29;20143;-65
2022/05/16 03:35:40;;;;;;;79.03;32.58;;;;;;;35.54;48.54;97335.50;4930581;29;20047;-65
2022/05/16 03:41:32;;;;;;;68.50;31.13;;;;;;;35.71;42.26;97340.97;4925502;29;20061;-65
2022/05/16 03:44:14;;;;;;;87.55;32.03;;;;;;;35.85;43.89;97334.25;4911817;29;20369;-65
2022/05/16 03:47:03;;;;;;;83.20;32.05;;;;;;;35.82;42.92;97334.75;4912150;29;20083;-65
2022/05/16 03:49:45;;;;;;;76.45;33.95;;;;;;;36.14;44.60;97331.56;4911087;29;20583;-65
2022/05/16 03:52:34;;;;;;;99.45;37.75;;;;;;;36.35;42.46;97334.38;4892549;29;20736;-65
2022/05/16 03:55:19;;;;;;;93.28;39.30;;;;;;;36.41;46.24;97321.84;4892888;29;20040;-65
2022/05/16 03:58:09;;;;;;;110.82;48.00;;;;;;;35.93;45.00;97320.47;4892551;29;20135;-66
2022/05/16 04:00:51;;;;;;;134.75;69.03;;;;;;;35.26;43.61;97320.22;4893024;29;20541;-67
2022/05/16 04:03:40;;;;;;;137.93;67.07;;;;;;;35.08;43.29;97314.97;4892567;29;20057;-66
2022/05/16 04:06:22;;;;;;;152.55;62.15;;;;;;;34.91;46.41;97301.50;4892580;29;20112;-66
2022/05/16 04:09:12;;;;;;;135.40;56.38;;;;;;;35.19;46.78;97307.97;4892399;29;20073;-67
2022/05/16 04:11:54;;;;;;;112.75;51.22;;;;;;;35.57;46.42;97316.28;4892675;29;20116;-66
2022/05/16 04:14:43;;;;;;;116.82;48.97;;;;;;;35.61;44.34;97311.25;4890851;29;20052;-67
2022/05/16 04:17:26;;;;;;;106.35;45.00;;;;;;;35.71;46.76;97319.53;4901296;29;20123;-67
2022/05/16 04:20:17;;;;;;;96.85;38.72;;;;;;;35.62;43.77;97318.25;4919711;29;20723;-68
2022/05/16 04:23:00;;;;;;;93.25;37.58;;;;;;;35.64;41.98;97316.16;4911255;29;20056;-67
2022/05/16 04:25:49;;;;;;;96.10;37.08;;;;;;;35.62;43.68;97324.41;4912827;29;20055;-67
2022/05/16 04:28:32;;;;;;;99.70;35.05;;;;;;;35.82;44.14;97328.59;4906384;28;20086;-67
2022/05/16 04:31:21;;;;;;;89.40;36.78;;;;;;;35.73;41.10;97333.50;4913443;29;20079;-69
2022/05/16 04:34:09;;;;;;;81.47;35.70;;;;;;;35.57;40.44;97343.09;4892574;29;20072;-68
2022/05/16 04:36:58;;;;;;;90.35;35.50;;;;;;;35.54;44.30;97342.75;4891427;29;20164;-68
2022/05/16 04:39:42;;;;;;;83.63;35.13;;;;;;;35.46;46.72;97345.78;4899358;29;20062;-67
2022/05/16 04:42:40;;;;;;;98.18;43.92;;;;;;;35.43;40.55;97351.63;4910266;29;20048;-67
2022/05/16 04:45:28;;;;;;;84.78;43.17;;;;;;;35.39;45.01;97350.47;4910279;29;20044;-66
2022/05/16 04:48:20;;;;;;;148.23;47.63;;;;;;;35.36;48.17;97357.09;4910461;29;20056;-66
2022/05/16 04:51:03;;;;;;;123.30;49.92;;;;;;;35.42;40.46;97372.25;4910616;29;20044;-67
2022/05/16 04:53:53;;;;;;;117.30;49.85;;;;;;;35.54;36.98;97372.22;4907362;29;20056;-68
2022/05/16 04:56:37;;;;;;;116.50;48.47;;;;;;;35.86;38.47;97368.06;4896135;29;20073;-67
2022/05/16 04:59:26;;;;;;;109.20;48.78;;;;;;;36.10;40.31;97371.47;4905021;29;20050;-67
2022/05/16 05:02:09;;;;;;;114.72;47.67;;;;;;;36.56;38.54;97377.66;4910220;29;20048;-68
2022/05/16 05:05:03;;;;;;;113.82;43.10;;;;;;;37.11;35.52;97381.25;4910693;29;20063;-68
2022/05/16 05:07:46;;;;;;;106.85;45.47;;;;;;;37.40;35.21;97381.09;4910264;29;20074;-67
2022/05/16 05:16:46;;;;;;;126.07;42.22;;;;;;;38.55;32.61;97380.84;4928395;29;20043;-66
2022/05/16 05:19:30;;;;;;;94.10;41.65;;;;;;;38.78;34.79;97384.25;4918731;29;20622;-67
2022/05/16 05:22:22;;;;;;;84.80;36.65;;;;;;;39.14;40.00;97385.31;4909156;29;20055;-67
2022/05/16 05:25:05;;;;;;;79.75;36.95;;;;;;;38.96;29.12;97395.44;4907123;29;20052;-65
2022/05/16 05:27:56;;;;;;;95.18;37.05;;;;;;;39.32;34.55;97390.28;4909683;29;20055;-66
2022/05/16 05:30:43;;;;;;;85.13;38.42;;;;;;;39.28;33.76;97398.06;4893657;29;20139;-66
2022/05/16 05:33:33;;;;;;;95.47;34.42;;;;;;;38.90;29.81;97409.91;4909386;29;20052;-66
2022/05/16 05:36:18;;;;;;;;;;;;;;;38.45;30.73;97401.44;4886393;29;20528;-67
2022/05/16 05:39:10;;;;;;;72.00;24.47;;;;;;;38.62;32.58;97394.09;4889246;29;19931;-66
2022/05/16 05:41:53;;;;;;;77.22;24.35;;;;;;;38.61;30.48;97397.84;4891107;29;20135;-67
2022/05/16 05:44:43;;;;;;;80.35;25.42;;;;;;;38.75;30.62;97390.13;4908761;29;20052;-66
2022/05/16 05:47:28;;;;;;;64.47;25.02;;;;;;;38.75;31.87;97387.44;4899352;28;20053;-66
2022/05/16 05:50:19;;;;;;;78.20;24.83;;;;;;;38.72;32.67;97390.63;4872224;29;20067;-66
2022/05/16 05:53:03;;;;;;;103.53;27.85;;;;;;;38.62;34.97;97373.34;4873517;29;20430;-66
2022/05/16 05:55:52;;;;;;;82.88;27.73;;;;;;;38.80;35.70;97376.69;4880267;29;20144;-67
2022/05/16 05:58:36;;;;;;;;;;;;;;;38.69;33.16;97375.81;4881040;29;20418;-68
2022/05/16 06:01:29;;;;;;;75.30;26.73;;;;;;;38.33;35.05;97376.53;4880379;29;19932;-67
2022/05/16 06:04:12;;;;;;;90.60;29.70;;;;;;;38.39;35.19;97375.53;4875117;29;20713;-67
2022/05/16 06:07:01;;;;;;;87.38;27.63;;;;;;;38.56;36.85;97387.00;4872543;29;20056;-66
2022/05/16 06:09:44;;;;;;;78.30;25.80;;;;;;;38.71;36.29;97386.34;4873032;29;20059;-66
2022/05/16 06:12:36;;;;;;;89.18;26.88;;;;;;;38.74;34.70;97373.16;4872558;29;20049;-65
2022/05/16 06:15:18;;;;;;;;;;;;;;;38.89;37.22;97364.38;4872605;29;20077;-65
2022/05/16 06:18:07;;;;;;;68.90;25.98;;;;;;;39.08;35.09;97373.69;4877620;29;19936;-65
2022/05/16 06:20:49;;;;;;;77.80;28.08;;;;;;;39.19;35.58;97375.38;4908956;29;20262;-65
2022/05/16 06:23:40;;;;;;;75.95;26.40;;;;;;;39.24;34.81;97371.91;4909751;29;20062;-66
2022/05/16 06:26:30;;;;;;;75.03;25.65;;;;;;;39.28;34.59;97373.78;4909481;29;20059;-64
2022/05/16 06:29:20;;;;;;;65.25;24.05;;;;;;;39.33;33.06;97378.41;4913343;29;20059;-65
2022/05/16 06:32:16;;;;;;;73.35;22.73;;;;;;;39.09;31.77;97380.72;4872874;29;20509;-66
2022/05/16 06:34:52;;;;;;;63.25;21.33;;;;;;;38.78;32.39;97385.06;4869925;29;20064;-65
2022/05/16 06:37:48;;;;;;;82.25;23.67;;;;;;;38.44;32.30;97383.66;4857443;29;20084;-67
2022/05/16 06:40:24;;;;;;;55.28;20.98;;;;;;;38.17;34.34;97397.13;4852916;29;20545;-65
2022/05/16 06:43:14;;;;;;;;;;;;;;;37.96;33.14;97396.06;4858544;29;20144;-66
2022/05/16 06:45:57;;;;;;;78.90;19.88;;;;;;;37.87;32.79;97390.31;4865238;29;20360;-66
2022/05/16 06:48:47;;;;;;;62.35;19.75;;;;;;;37.67;33.03;97379.34;4861789;29;20053;-65
2022/05/16 06:51:36;;;;;;;66.82;19.00;;;;;;;37.51;33.93;97378.31;4852706;29;20080;-66
2022/05/16 06:54:25;;;;;;;72.43;18.05;;;;;;;37.35;32.00;97387.25;4863230;29;20160;-66
2022/05/16 06:57:16;;;;;;;77.43;16.58;;;;;;;37.25;33.88;97379.03;4863521;29;20117;-66
2022/05/16 06:59:58;;;;;;;76.15;15.82;;;;;;;37.08;33.04;97381.72;4860788;29;20117;-66
2022/05/16 07:02:48;;;;;;;72.95;15.10;;;;;;;36.93;33.72;97380.69;4861197;29;20062;-65
2022/05/16 07:05:51;;;;;;;65.22;15.68;;;;;;;36.85;34.39;97375.72;4868156;29;20064;-65
2022/05/16 07:08:40;;;;;;;61.28;15.50;;;;;;;36.54;38.46;97375.22;4871605;29;20053;-65
2022/05/16 07:11:22;;;;;;;65.88;16.38;;;;;;;36.41;34.63;97375.53;4873209;29;20498;-65
2022/05/16 07:14:11;;;;;;;74.38;18.27;;;;;;;36.39;34.83;97373.09;4871911;29;20049;-65
2022/05/16 07:17:01;;;;;;;63.20;17.27;;;;;;;36.22;35.39;97361.53;4868163;29;20041;-65
2022/05/16 07:19:46;;;;;;;55.00;16.88;;;;;;;36.13;34.04;97362.13;4866381;29;20057;-65
2022/05/16 07:22:35;;;;;;;56.72;17.40;;;;;;;36.01;36.29;97357.63;4854348;29;20545;-65
2022/05/16 07:25:18;;;;;;;80.70;18.85;;;;;;;35.94;36.71;97353.47;4868583;29;20060;-65
2022/05/16 07:28:07;;;;;;;66.55;16.80;;;;;;;35.89;37.55;97356.06;4871693;29;20300;-66
2022/05/16 07:30:56;;;;;;;60.65;16.65;;;;;;;35.90;37.79;97350.47;4898208;29;20062;-65
2022/05/16 07:33:45;;;;;;;71.35;17.25;;;;;;;35.98;38.95;97343.91;4890100;29;20120;-65
2022/05/16 07:36:27;;;;;;;78.53;17.60;;;;;;;36.13;36.03;97348.72;4890381;29;20147;-63
2022/05/16 07:39:16;;;;;;;81.53;17.02;;;;;;;36.23;37.37;97343.56;4891515;29;20052;-69
2022/05/16 07:41:59;;;;;;;74.35;18.58;;;;;;;36.32;39.51;97350.16;4907689;29;20052;-69
2022/05/16 07:44:50;;;;;;;55.65;16.88;;;;;;;36.62;38.33;97342.59;4909860;29;20052;-67
2022/05/16 07:47:34;;;;;;;63.67;16.48;;;;;;;36.96;38.80;97337.22;4905627;29;20055;-69
2022/05/16 07:50:30;;;;;;;63.50;17.15;;;;;;;37.35;38.31;97338.06;4904630;29;20111;-69
2022/05/16 07:53:13;;;;;;;55.85;17.30;;;;;;;37.61;36.19;97331.13;4908377;29;20100;-69
2022/05/16 07:56:03;;;;;;;67.93;16.00;;;;;;;37.91;33.98;97323.41;4905840;29;20052;-68
2022/05/16 07:58:46;;;;;;;61.10;14.57;;;;;;;38.11;34.59;97318.22;4906005;29;20052;-68
2022/05/16 08:01:36;;;;;;;43.40;12.45;;;;;;;38.26;33.13;97309.47;4905323;29;20045;-68
2022/05/16 08:04:19;;;;;;;45.05;13.13;;;;;;;38.41;32.03;97303.41;4902160;29;20430;-69
2022/05/16 08:07:08;;;;;;;42.40;11.70;;;;;;;38.51;30.99;97298.13;4918610;29;20064;-68
2022/05/16 08:13:17;;;;;;;46.22;12.88;;;;;;;38.59;31.90;97281.47;4900489;29;20051;-69
2022/05/16 08:15:53;;;;;;;55.60;14.23;;;;;;;38.66;30.25;97284.75;4904748;29;20122;-70
2022/05/16 08:18:42;;;;;;;;;;;;;;;38.75;27.18;97282.41;4902971;29;20064;-69
2022/05/16 08:21:24;;;;;;;67.03;11.38;;;;;;;38.90;31.51;97269.81;4910582;29;20381;-69
2022/05/16 08:24:13;;;;;;;41.03;10.95;;;;;;;38.99;29.64;97262.91;4926810;29;20043;-69
2022/05/16 08:26:55;;;;;;;45.65;10.63;;;;;;;39.12;33.00;97256.19;4923829;29;20134;-69
2022/05/16 08:29:45;;;;;;;53.40;10.60;;;;;;;39.09;30.52;97261.31;4931418;29;20056;-69
2022/05/16 08:32:27;;;;;;;;;;;;;;;38.95;28.19;97255.59;4931964;29;20075;-69
2022/05/16 08:35:18;;;;;;;46.90;11.85;;;;;;;38.98;29.31;97242.41;4932377;29;19927;-69
2022/05/16 08:41:18;;;;;;;44.03;12.13;;;;;;;38.69;29.65;97234.97;4929627;29;20043;-69
2022/05/16 08:44:24;;;;;;;49.20;11.82;;;;;;;38.72;31.25;97231.72;4902772;29;20044;-68
2022/05/16 08:47:15;;;;;;;52.08;13.00;;;;;;;38.83;29.50;97231.53;4887717;29;20484;-68
2022/05/16 08:50:03;;;;;;;42.00;9.77;;;;;;;38.94;29.97;97227.84;4913520;29;20052;-68
2022/05/16 08:53:02;;;;;;;50.88;9.73;;;;;;;39.11;26.63;97224.16;4895060;29;20048;-68
2022/05/16 08:55:57;;;;;;;39.60;8.32;;;;;;;39.12;26.92;97220.34;4897212;29;20111;-67
2022/05/16 08:58:41;;;;;;;50.25;9.25;;;;;;;39.12;25.63;97223.03;4899197;29;20139;-68
2022/05/16 09:01:39;;;;;;;40.55;8.93;;;;;;;38.89;24.44;97216.19;4896611;29;20057;-68
2022/05/16 09:04:25;;;;;;;39.88;7.40;;;;;;;38.66;24.71;97212.88;4904864;29;20058;-68
2022/05/16 09:07:22;;;;;;;40.88;7.55;;;;;;;38.48;24.67;97220.53;4903427;29;20143;-69
2022/05/16 09:10:17;;;;;;;37.05;8.35;;;;;;;38.32;26.84;97208.03;4906405;29;20076;-68
2022/05/16 09:13:09;;;;;;;27.23;6.82;;;;;;;38.14;24.52;97211.97;4905075;29;20048;-68
2022/05/16 09:16:33;;;;;;;45.35;7.18;;;;;;;38.16;25.24;97207.94;4901296;29;20118;-69
2022/05/16 09:19:41;;;;;;;34.80;5.40;;;;;;;38.19;26.44;97203.94;4904535;29;20113;-68
2022/05/16 09:22:52;;;;;;;35.60;6.10;;;;;;;38.13;25.48;97200.41;4912523;29;20460;-68
2022/05/16 09:25:59;;;;;;;31.98;5.18;;;;;;;37.98;26.81;97197.56;4905580;29;20148;-68
2022/05/16 09:29:18;;;;;;;33.50;6.28;;;;;;;37.88;26.39;97197.47;4902398;29;20131;-68
2022/05/16 09:32:42;;;;;;;35.60;4.93;;;;;;;37.72;27.21;97187.66;4890956;29;20057;-69
2022/05/16 09:35:39;;;;;;;45.45;8.60;;;;;;;37.52;28.16;97182.84;4895312;29;20112;-68
2022/05/16 09:38:27;;;;;;;30.77;4.15;;;;;;;37.40;28.03;97185.72;4905237;29;20243;-69
2022/05/16 09:41:29;;;;;;;27.60;5.03;;;;;;;37.27;28.85;97175.38;4910845;29;20048;-68
2022/05/16 09:44:33;;;;;;;38.20;5.78;;;;;;;37.10;30.69;97172.75;4911202;29;20059;-67
2022/05/16 09:47:18;;;;;;;32.53;6.63;;;;;;;36.92;30.98;97172.25;4909688;29;20127;-68
2022/05/16 09:50:14;;;;;;;51.15;6.03;;;;;;;36.71;32.05;97161.28;4895064;29;20079;-69
2022/05/16 09:53:15;;;;;;;42.25;8.10;;;;;;;36.62;31.58;97159.25;4892677;29;20070;-68
2022/05/16 09:56:33;;;;;;;44.03;6.25;;;;;;;36.48;33.30;97150.72;4904411;29;20417;-67
2022/05/16 09:59:11;;;;;;;23.30;4.95;;;;;;;36.41;34.18;97144.75;4900717;29;20075;-68
2022/05/16 10:02:16;;;;;;;38.65;5.32;;;;;;;36.49;32.26;97149.69;4895908;29;20052;-68
2022/05/16 10:05:11;;;;;;;27.98;5.70;;;;;;;36.51;33.53;97147.56;4896372;29;20124;-68
2022/05/16 10:08:17;;;;;;;21.10;4.75;;;;;;;36.65;30.41;97151.50;4901993;29;20040;-68
2022/05/16 10:11:10;;;;;;;31.17;4.93;;;;;;;36.76;33.46;97150.59;4901549;29;20111;-68
2022/05/16 10:13:54;;;;;;;25.70;4.65;;;;;;;36.79;32.89;97154.66;4901472;29;20059;-68
2022/05/16 10:16:48;;;;;;;30.17;4.88;;;;;;;36.83;29.80;97150.41;4900003;29;20092;-67
2022/05/16 10:19:32;;;;;;;23.52;5.28;;;;;;;36.86;29.30;97135.69;4903475;29;20064;-68
2022/05/16 10:22:25;;;;;;;40.22;7.20;;;;;;;37.30;29.24;97145.28;4900606;29;20159;-68
2022/05/16 10:25:27;;;;;;;53.88;9.82;;;;;;;37.37;33.42;97137.03;4899568;29;20061;-68
2022/05/16 10:28:37;;;;;;;55.60;11.05;;;;;;;37.36;34.34;97133.53;4902879;29;20052;-68
2022/05/16 10:35:07;;;;;;;46.20;10.80;;;;;;;37.54;32.14;97133.16;4903497;29;20524;-68
2022/05/16 10:38:02;;;;;;;65.25;12.50;;;;;;;37.54;33.34;97133.16;4907230;29;20045;-69
2022/05/16 10:40:51;;;;;;;68.30;12.15;;;;;;;37.55;32.08;97124.03;4900911;29;20504;-68
2022/05/16 10:43:51;;;;;;;59.65;12.65;;;;;;;37.65;32.00;97115.28;4894314;29;20052;-68
2022/05/16 10:46:44;;;;;;;51.70;11.55;;;;;;;37.78;31.86;97114.81;4895920;29;20056;-69
2022/05/16 10:49:42;;;;;;;71.05;11.50;;;;;;;37.97;31.41;97115.25;4897471;29;20051;-68
2022/05/16 10:52:35;;;;;;;79.68;14.93;;;;;;;37.98;30.30;97106.09;4910169;29;20139;-69
2022/05/16 10:55:24;;;;;;;69.53;11.10;;;;;;;38.00;28.79;97112.00;4910481;29;20115;-68
2022/05/16 10:58:17;;;;;;;79.75;14.23;;;;;;;38.07;28.66;97114.53;4906078;29;20147;-68
2022/05/16 11:01:20;;;;;;;52.45;9.60;;;;;;;38.08;29.09;97106.16;4899996;29;20528;-69
2022/05/16 11:04:39;;;;;;;65.15;10.10;;;;;;;38.08;27.92;97095.41;4907641;29;20052;-68
2022/05/16 11:07:31;;;;;;;74.25;12.75;;;;;;;38.10;28.45;97093.28;4905110;29;20059;-68
2022/05/16 11:10:47;;;;;;;59.22;10.90;;;;;;;37.88;30.59;97079.13;4908998;29;20107;-68
2022/05/16 11:13:56;;;;;;;73.82;11.77;;;;;;;37.96;29.27;97081.34;4891975;29;20059;-68
2022/05/16 11:16:39;;;;;;;60.50;12.65;;;;;;;37.75;29.10;97068.84;4909860;29;20492;-68
2022/05/16 11:19:56;;;;;;;71.95;12.50;;;;;;;37.64;30.04;97067.94;4910606;29;20079;-68
2022/05/16 11:22:54;;;;;;;89.95;13.43;;;;;;;37.64;30.91;97064.44;4912610;29;20063;-68
2022/05/16 11:25:58;;;;;;;91.07;13.18;;;;;;;37.59;32.37;97070.59;4921209;29;20040;-70
2022/05/16 11:29:18;;;;;;;88.75;13.75;;;;;;;37.47;33.53;97065.38;4923677;29;20062;-70
2022/05/16 11:32:34;;;;;;;96.65;14.15;;;;;;;37.38;34.27;97053.47;4897356;29;20579;-69
2022/05/16 11:35:45;;;;;;;93.72;12.18;;;;;;;37.30;32.28;97051.25;4911706;29;20074;-69
2022/05/16 11:38:59;;;;;;;71.20;11.52;;;;;;;37.27;31.30;97053.66;4914301;29;20044;-68
2022/05/16 11:42:11;;;;;;;80.78;10.18;;;;;;;37.29;31.07;97041.56;4917018;29;20051;-67
2022/05/16 11:45:21;;;;;;;74.82;10.77;;;;;;;37.17;29.48;97046.31;4932882;29;20133;-69
2022/05/16 11:48:36;;;;;;;88.45;11.73;;;;;;;37.03;29.30;97039.72;4932724;29;20059;-67
2022/05/16 11:52:14;;;;;;;78.40;11.15;;;;;;;37.21;28.39;97044.72;4934628;29;20472;-67
2022/05/16 12:00:31;;;;;;;70.78;11.00;;;;;;;37.35;28.88;97035.19;4934548;29;20047;-66
2022/05/16 12:01:37;;;;;;;75.90;12.52;;;;;;;37.26;28.85;97036.72;4932894;29;20055;-67
2022/05/16 12:04:40;;;;;;;91.90;13.63;;;;;;;37.15;29.05;97037.69;4921059;29;20044;-67
2022/05/16 12:07:42;;;;;;;67.85;10.73;;;;;;;37.02;29.57;97032.72;4895806;29;20132;-67
2022/05/16 12:10:33;;;;;;;69.20;9.95;;;;;;;36.97;30.19;97040.69;4909538;29;20504;-67
2022/05/16 12:13:33;;;;;;;63.95;11.38;;;;;;;36.90;29.15;97035.53;4910881;29;20052;-67
2022/05/16 12:16:28;;;;;;;54.97;10.60;;;;;;;36.97;29.38;97040.69;4896280;29;20107;-67
2022/05/16 12:19:42;;;;;;;75.28;11.93;;;;;;;37.16;29.14;97050.06;4919657;29;20063;-68
2022/05/16 12:22:37;;;;;;;82.18;11.43;;;;;;;37.01;29.05;97047.22;4931850;29;20086;-68
2022/05/16 12:25:37;;;;;;;68.85;11.32;;;;;;;36.90;31.80;97040.91;4899723;29;20643;-68
2022/05/16 12:28:23;;;;;;;105.88;13.10;;;;;;;36.90;28.72;97040.09;4906439;29;20067;-68
2022/05/16 12:31:16;;;;;;;65.55;11.73;;;;;;;36.82;29.49;97059.34;4908746;29;20076;-66
2022/05/16 12:34:07;;;;;;;66.80;11.90;;;;;;;36.66;29.93;97045.78;4905877;29;20056;-68
2022/05/16 12:37:03;;;;;;;68.47;10.80;;;;;;;36.65;27.28;97054.03;4902654;29;20115;-67
2022/05/16 12:40:15;;;;;;;78.80;11.10;;;;;;;36.58;28.59;97056.94;4862621;29;20067;-65
2022/05/16 12:43:38;;;;;;;65.07;10.90;;;;;;;36.49;28.42;97050.38;4863994;29;20570;-66
2022/05/16 12:46:32;;;;;;;65.70;9.90;;;;;;;36.34;29.52;97045.66;4872648;29;20061;-65
2022/05/16 12:49:41;;;;;;;69.80;10.63;;;;;;;36.16;30.39;97045.13;4861689;29;20055;-64
2022/05/16 12:52:53;;;;;;;57.35;10.68;;;;;;;36.14;29.38;97052.59;4863834;29;20065;-65
2022/05/16 12:56:14;;;;;;;69.18;9.85;;;;;;;36.00;30.61;97052.13;4857324;29;20049;-64
2022/05/16 12:59:15;;;;;;;58.50;9.18;;;;;;;35.83;31.50;97054.88;4862949;29;20503;-63
2022/05/16 13:02:01;;;;;;;55.75;9.88;;;;;;;35.72;32.01;97066.50;4856544;29;20049;-66
2022/05/16 13:05:25;;;;;;;64.00;9.38;;;;;;;35.63;31.34;97071.44;4856450;29;20076;-66
2022/05/16 13:08:28;;;;;;;55.67;10.57;;;;;;;35.55;30.03;97076.38;4857132;29;20049;-63
2022/05/16 13:11:26;;;;;;;63.42;11.90;;;;;;;35.51;30.54;97094.03;4881391;29;20444;-64
2022/05/16 13:15:05;;;;;;;56.97;9.95;;;;;;;35.44;31.11;97101.41;4893403;29;20069;-64
2022/05/16 13:17:48;;;;;;;61.42;9.98;;;;;;;35.38;30.66;97113.06;4881529;29;20057;-66
2022/05/16 13:20:43;;;;;;;55.30;10.25;;;;;;;35.28;32.52;97103.81;4863977;29;20529;-63
2022/05/16 13:23:26;;;;;;;77.43;11.38;;;;;;;35.27;31.65;97106.75;4865127;29;20109;-64
2022/05/16 13:29:22;;;;;;;87.03;13.25;;;;;;;35.16;32.27;97097.69;4865442;29;20068;-64
2022/05/16 13:32:21;;;;;;;81.22;12.73;;;;;;;35.09;33.30;97090.84;4860082;29;20098;-64
2022/05/16 13:35:03;;;;;;;72.82;11.68;;;;;;;34.99;32.83;97086.13;4863219;29;20089;-64
2022/05/16 13:38:01;;;;;;;84.72;12.82;;;;;;;35.00;32.04;97087.75;4881097;29;20067;-64
2022/05/16 13:40:56;;;;;;;67.65;12.23;;;;;;;34.88;32.32;97092.38;4898916;29;20044;-63
2022/05/16 13:43:45;;;;;;;75.82;10.95;;;;;;;34.81;32.91;97094.34;4894971;29;20063;-63
2022/05/16 13:46:34;;;;;;;76.33;10.37;;;;;;;34.73;35.45;97092.84;4902047;29;22654;-64
2022/05/16 13:49:33;;;;;;;70.45;9.63;;;;;;;34.62;32.63;97099.06;4895553;29;20131;-64